Liberty — WDC5845 — position and weather

sailwx.info

Track history (hours):
 
Tides and Currents Weather Stations Pressure Air Temp Water Temp Dewpoint Dewpoint Depression Visibility Wind Speed Wind Dir Waves Ship Positions

Liberty

Owner: Tidewater Barge Lines Inc., Vancouver, WA. More information available from US FCC via Universal Licensing System and Coast Guard Vessel Documentation Center.

Last reported at 2017-Dec-11 17:00 UTC. Time now 2017-Dec-12 02:45 UTC.
Position N 46°09' W 123°18'.

Length 34 m; draft 3 m.

Type: Towing. MMSI: 2142822.

Date/timePositionNaut miles runAvg speedWind from/ knotsBaromVisibWave heightAir tempDewpointWater temp
2017-Dec-11 17:00N 46°09' W 123°18'4 8.8
2017-Dec-11 16:31N 46°11' W 123°12'4 8.3
2017-Dec-11 16:00N 46°11' W 123°06'5 9.6
2017-Dec-11 15:31N 46°08' W 123°00'4 8.7
2017-Dec-11 15:01N 46°05' W 122°55'0 0.6
2017-Dec-11 14:30N 46°05' W 122°55'4 8.7
2017-Dec-11 14:00N 46°01' W 122°52'5 9.3
2017-Dec-11 13:31N 45°57' W 122°49'5 9.4
2017-Dec-11 13:00N 45°53' W 122°48'5 9.1
2017-Dec-11 12:30N 45°48' W 122°47'4 8.8
2017-Dec-11 12:00N 45°44' W 122°46'4 8.9
2017-Dec-11 11:30N 45°40' W 122°46'3 5.1
2017-Dec-11 11:01N 45°37' W 122°47'3 5.8
2017-Dec-11 10:31N 45°35' W 122°45'1 2.1
2017-Dec-11 10:00N 45°34' W 122°44'0 0.0
2017-Dec-11 09:31N 45°34' W 122°44'0 0.0
2017-Dec-11 09:00N 45°34' W 122°44'0 0.0
2017-Dec-11 08:30N 45°34' W 122°44'0 0.0
2017-Dec-11 08:01N 45°34' W 122°44'0 0.0
2017-Dec-11 07:30N 45°34' W 122°44'0 0.0
2017-Dec-11 07:00N 45°34' W 122°44'0 0.0
2017-Dec-11 06:30N 45°34' W 122°44'3 6.5
2017-Dec-11 06:00N 45°36' W 122°47'1 1.7
2017-Dec-11 05:30N 45°37' W 122°47'3 5.5
2017-Dec-11 05:00N 45°40' W 122°46'4 7.1
2017-Dec-11 04:31N 45°43' W 122°46'4 7.4
2017-Dec-11 04:00N 45°47' W 122°47'3 6.8
2017-Dec-11 03:30N 45°50' W 122°47'3 6.5
2017-Dec-11 03:00N 45°54' W 122°48'3 6.7
2017-Dec-11 02:31N 45°57' W 122°49'3 6.6
2017-Dec-11 02:00N 45°60' W 122°51'3 6.2
2017-Dec-11 01:31N 46°03' W 122°53'3 5.9
2017-Dec-11 01:00N 46°05' W 122°55'3 6.7
2017-Dec-11 00:29N 46°07' W 122°59'3 6.4
2017-Dec-11 00:00N 46°09' W 123°03'3 6.6
2017-Dec-10 23:30N 46°11' W 123°07'3 5.9
2017-Dec-10 23:00N 46°11' W 123°11'3 6.0
2017-Dec-10 22:31N 46°10' W 123°15'3 6.1
2017-Dec-10 22:00N 46°09' W 123°19'3 6.2
2017-Dec-10 21:30N 46°09' W 123°23'1 2.0
2017-Dec-10 21:00N 46°10' W 123°25'0 0.0
2017-Dec-10 20:30N 46°10' W 123°25'0 0.9
2017-Dec-10 20:00N 46°09' W 123°24'0 0.7
2017-Dec-10 19:29N 46°09' W 123°24'510.0
2017-Dec-10 19:00N 46°09' W 123°17'510.1
2017-Dec-10 18:30N 46°11' W 123°10'5 9.2
2017-Dec-10 18:00N 46°10' W 123°04'5 9.2
2017-Dec-10 17:31N 46°07' W 122°59'4 8.9
2017-Dec-10 17:00N 46°04' W 122°53'4 8.6
2017-Dec-10 16:31N 46°00' W 122°51'5 9.3
2017-Dec-10 16:00N 45°56' W 122°48'5 9.8
2017-Dec-10 15:31N 45°51' W 122°47'6 9.7
2017-Dec-10 14:56N 45°46' W 122°46'410.2
2017-Dec-10 14:30N 45°41' W 122°46'4 8.3
2017-Dec-10 14:00N 45°37' W 122°47'0 0.1
2017-Dec-10 13:22N 45°37' W 122°47'0 0.4
2017-Dec-10 13:01N 45°37' W 122°47'3 5.2
2017-Dec-10 12:31N 45°40' W 122°46'1 2.8
2017-Dec-10 12:00N 45°41' W 122°46'2 4.5
2017-Dec-10 11:30N 45°43' W 122°46'2 4.7
2017-Dec-10 11:00N 45°45' W 122°46'3 4.6
2017-Dec-10 10:27N 45°48' W 122°47'2 4.4
2017-Dec-10 10:00N 45°50' W 122°48'2 4.2
2017-Dec-10 09:31N 45°52' W 122°47'2 3.9
2017-Dec-10 09:00N 45°54' W 122°48'2 4.2
2017-Dec-10 08:30N 45°56' W 122°48'2 4.4
2017-Dec-10 08:00N 45°58' W 122°49'2 4.5
2017-Dec-10 07:31N 45°60' W 122°51'2 4.5
2017-Dec-10 07:00N 46°02' W 122°53'2 4.4
2017-Dec-10 06:31N 46°04' W 122°53'2 4.5
2017-Dec-10 06:01N 46°06' W 122°55'1 2.2
2017-Dec-10 05:30N 46°06' W 122°57'1 1.1
2017-Dec-10 05:00N 46°06' W 122°56'0 0.0
2017-Dec-10 04:30N 46°06' W 122°56'0 0.0
2017-Dec-10 04:01N 46°06' W 122°56'2 4.1
2017-Dec-10 03:30N 46°07' W 122°59'3 5.4
2017-Dec-10 03:01N 46°09' W 123°02'3 5.4
2017-Dec-10 02:30N 46°10' W 123°05'3 5.9
2017-Dec-10 02:00N 46°11' W 123°09'3 6.0
2017-Dec-10 01:30N 46°10' W 123°13'3 6.0
2017-Dec-10 01:00N 46°09' W 123°17'3 5.9
2017-Dec-10 00:30N 46°09' W 123°21'3 5.2
2017-Dec-10 00:00N 46°10' W 123°25'0 0.0
2017-Dec-09 23:30N 46°10' W 123°25'2 3.3
2017-Dec-09 23:01N 46°11' W 123°26'4 7.3
2017-Dec-09 22:31N 46°15' W 123°26'3 6.8
2017-Dec-09 22:00N 46°16' W 123°31'4 7.4
2017-Dec-09 21:30N 46°15' W 123°36'4 7.1
2017-Dec-09 21:01N 46°15' W 123°41'4 7.4
2017-Dec-09 20:31N 46°13' W 123°46'4 7.1
2017-Dec-09 20:01N 46°12' W 123°50'3 5.8
2017-Dec-09 19:31N 46°11' W 123°55'1 1.4
2017-Dec-09 19:00N 46°12' W 123°56'0 0.3
2017-Dec-09 18:31N 46°11' W 123°55'0 0.1
2017-Dec-09 18:01N 46°11' W 123°55'0 0.1
2017-Dec-09 17:29N 46°11' W 123°55'0 0.0
2017-Dec-09 17:00N 46°11' W 123°55'0 0.0
2017-Dec-09 16:30N 46°11' W 123°55'0 0.0
2017-Dec-09 15:56N 46°11' W 123°55'0 0.0
2017-Dec-09 15:31N 46°11' W 123°55'0 0.0
2017-Dec-09 15:01N 46°12' W 123°55'4 6.0
2017-Dec-09 14:18N 46°12' W 123°49'510.0
2017-Dec-09 13:48N 46°14' W 123°43'3 9.2
2017-Dec-09 13:30N 46°15' W 123°39'5 9.3
2017-Dec-09 13:00N 46°16' W 123°33'4 8.6
2017-Dec-09 12:31N 46°15' W 123°27'5 9.7
2017-Dec-09 12:00N 46°10' W 123°25'1 1.5
2017-Dec-09 11:31N 46°10' W 123°24'2 4.2
2017-Dec-09 11:00N 46°09' W 123°21'510.8
2017-Dec-09 10:30N 46°10' W 123°14'510.5
2017-Dec-09 10:00N 46°11' W 123°06'611.3
2017-Dec-09 09:30N 46°08' W 122°60'510.9
2017-Dec-09 09:00N 46°04' W 122°53'611.0
2017-Dec-09 08:30N 45°59' W 122°50'510.5
2017-Dec-09 08:00N 45°54' W 122°48'510.4
2017-Dec-09 07:30N 45°49' W 122°48'510.1
2017-Dec-09 07:00N 45°44' W 122°46'7 8.1
2017-Dec-09 06:09N 45°37' W 122°47'0 1.5
2017-Dec-09 06:00N 45°37' W 122°47'0 0.4
2017-Dec-09 05:30N 45°37' W 122°47'0 0.1
2017-Dec-09 05:00N 45°37' W 122°47'0 0.0
2017-Dec-09 04:30N 45°37' W 122°47'0 0.0
2017-Dec-09 04:00N 45°37' W 122°47'1 2.7
2017-Dec-09 03:30N 45°38' W 122°47'3 5.3
2017-Dec-09 03:00N 45°41' W 122°46'4 7.5
2017-Dec-09 02:30N 45°45' W 122°46'5 9.7
2017-Dec-09 02:00N 45°50' W 122°48'2 4.6
2017-Dec-09 01:30N 45°52' W 122°47'3 6.9
2017-Dec-09 01:00N 45°55' W 122°49'3 6.7
2017-Dec-09 00:30N 45°58' W 122°50'2 3.0
2017-Dec-09 00:00N 45°60' W 122°51'3 6.0
2017-Dec-08 23:30N 46°02' W 122°53'3 6.6
2017-Dec-08 23:00N 46°05' W 122°55'4 7.1
2017-Dec-08 22:30N 46°07' W 122°59'3 6.9
2017-Dec-08 22:00N 46°09' W 123°03'4 7.0
2017-Dec-08 21:30N 46°11' W 123°08'3 6.4
2017-Dec-08 21:00N 46°10' W 123°12'3 6.5
2017-Dec-08 20:30N 46°09' W 123°17'3 6.7
2017-Dec-08 20:01N 46°09' W 123°21'2 4.9
2017-Dec-08 19:30N 46°10' W 123°25'0 0.0
2017-Dec-08 19:01N 46°10' W 123°25'0 0.0
2017-Dec-08 18:31N 46°10' W 123°25'0 0.3
2017-Dec-08 18:01N 46°10' W 123°24'0 0.5
2017-Dec-08 17:31N 46°10' W 123°24'4 7.9
2017-Dec-08 17:00N 46°09' W 123°19'5 9.3
2017-Dec-08 16:30N 46°10' W 123°12'4 8.1
2017-Dec-08 16:00N 46°11' W 123°07'4 8.4
2017-Dec-08 15:30N 46°08' W 123°02'4 8.1
2017-Dec-08 15:00N 46°06' W 122°57'4 7.9
2017-Dec-08 14:30N 46°03' W 122°53'4 8.4
2017-Dec-08 14:00N 45°59' W 122°51'4 8.7
2017-Dec-08 13:30N 45°55' W 122°48'5 9.3
2017-Dec-08 13:00N 45°51' W 122°47'4 8.9
2017-Dec-08 12:30N 45°46' W 122°46'5 9.2
2017-Dec-08 12:00N 45°42' W 122°46'4 7.9
2017-Dec-08 11:30N 45°38' W 122°47'1 1.5
2017-Dec-08 11:00N 45°37' W 122°47'0 0.4
2017-Dec-08 10:30N 45°37' W 122°47'3 5.1
2017-Dec-08 10:00N 45°40' W 122°45'3 6.6
2017-Dec-08 09:30N 45°36' W 122°47'4 8.9
2017-Dec-08 09:00N 45°33' W 122°43'2 3.5
2017-Dec-08 08:30N 45°32' W 122°41'4 8.2
2017-Dec-08 08:00N 45°35' W 122°45'3 5.6
2017-Dec-08 07:30N 45°37' W 122°47'0 0.2
2017-Dec-08 07:00N 45°37' W 122°47'0 0.2
2017-Dec-08 06:30N 45°37' W 122°47'0 0.1
2017-Dec-08 06:00N 45°37' W 122°47'0 0.6
2017-Dec-08 05:30N 45°38' W 122°47'4 7.1
2017-Dec-08 05:00N 45°41' W 122°47'4 7.5
2017-Dec-08 04:30N 45°45' W 122°46'4 7.8
2017-Dec-08 04:00N 45°48' W 122°47'4 7.5
2017-Dec-08 03:30N 45°52' W 122°47'3 5.5
2017-Dec-08 03:00N 45°55' W 122°49'4 7.5
2017-Dec-08 02:30N 45°58' W 122°50'4 7.5
2017-Dec-08 02:00N 46°02' W 122°53'4 7.3
2017-Dec-08 01:30N 46°05' W 122°55'4 7.6
2017-Dec-08 01:00N 46°07' W 122°59'4 7.7
2017-Dec-08 00:30N 46°09' W 123°04'4 8.4
2017-Dec-08 00:00N 46°11' W 123°09'4 8.5
2017-Dec-07 23:31N 46°10' W 123°15'4 8.4
2017-Dec-07 23:00N 46°09' W 123°21'3 5.8
2017-Dec-07 22:30N 46°10' W 123°25'0 0.0
2017-Dec-07 22:00N 46°10' W 123°25'0 0.0
2017-Dec-07 21:30N 46°10' W 123°25'0 0.0
2017-Dec-07 21:00N 46°10' W 123°25'0 0.6
2017-Dec-07 20:31N 46°10' W 123°24'3 5.8
2017-Dec-07 20:00N 46°09' W 123°20'510.7
2017-Dec-07 19:30N 46°10' W 123°13'510.0
2017-Dec-07 19:00N 46°10' W 123°06'510.7
2017-Dec-07 18:30N 46°07' W 122°59'510.3
2017-Dec-07 18:00N 46°04' W 122°53'5 9.5
2017-Dec-07 17:28N 45°60' W 122°51'0 0.4
2017-Dec-07 17:00N 45°59' W 122°50'0 0.0
2017-Dec-07 16:30N 45°59' W 122°50'0 0.0
2017-Dec-07 16:00N 45°59' W 122°50'1 2.2
2017-Dec-07 15:30N 46°00' W 122°51'1 1.8
2017-Dec-07 15:00N 46°01' W 122°52'1 1.4
2017-Dec-07 14:30N 46°01' W 122°51'1 2.7
2017-Dec-07 14:01N 45°59' W 122°50'0 0.0
2017-Dec-07 13:30N 45°59' W 122°50'0 0.0
2017-Dec-07 13:00N 45°59' W 122°50'0 0.0
2017-Dec-07 12:30N 45°59' W 122°50'0 0.0
2017-Dec-07 12:00N 45°59' W 122°50'0 1.0
2017-Dec-07 11:30N 45°59' W 122°50'5 9.3
2017-Dec-07 11:00N 45°54' W 122°49'1 2.5
2017-Dec-07 10:30N 45°53' W 122°48'5 9.5
2017-Dec-07 10:00N 45°49' W 122°48'5 9.3
2017-Dec-07 09:30N 45°44' W 122°46'5 9.1
2017-Dec-07 09:00N 45°39' W 122°46'1 1.3
2017-Dec-07 08:30N 45°39' W 122°45'2 3.7
2017-Dec-07 08:00N 45°38' W 122°43'2 3.9
2017-Dec-07 07:31N 45°39' W 122°45'0 0.3
2017-Dec-07 07:00N 45°39' W 122°45'2 5.0
2017-Dec-07 06:30N 45°37' W 122°47'0 0.2
2017-Dec-07 06:00N 45°37' W 122°47'0 0.0
2017-Dec-07 05:30N 45°37' W 122°47'0 0.1
2017-Dec-07 05:00N 45°37' W 122°47'3 5.7
2017-Dec-07 04:30N 45°40' W 122°46'3 5.9
2017-Dec-07 04:00N 45°43' W 122°46'3 6.9
2017-Dec-07 03:30N 45°46' W 122°46'4 6.9
2017-Dec-07 02:56N 45°50' W 122°47'3 7.0
2017-Dec-07 02:30N 45°53' W 122°48'3 6.7
2017-Dec-07 02:00N 45°56' W 122°48'4 8.1
2017-Dec-07 01:30N 46°00' W 122°51'4 8.1
2017-Dec-07 01:00N 46°04' W 122°53'4 7.7
2017-Dec-07 00:30N 46°06' W 122°58'4 8.0
2017-Dec-07 00:00N 46°09' W 123°02'4 7.9
2017-Dec-06 23:30N 46°11' W 123°07'4 7.5
2017-Dec-06 23:00N 46°10' W 123°13'4 8.0
2017-Dec-06 22:30N 46°09' W 123°18'4 8.1
2017-Dec-06 22:00N 46°09' W 123°24'0 0.7
2017-Dec-06 21:31N 46°09' W 123°24'0 0.0
2017-Dec-06 21:00N 46°09' W 123°24'  
2017-Dec-04 10:30N 45°34' W 122°44'0 0.0
2017-Dec-04 10:00N 45°34' W 122°44'0 0.0
2017-Dec-04 09:30N 45°34' W 122°44'0 0.0
2017-Dec-04 09:00N 45°34' W 122°44'0 0.0
2017-Dec-04 08:30N 45°34' W 122°44'0 0.0
2017-Dec-04 08:00N 45°34' W 122°44'0 0.0
2017-Dec-04 07:30N 45°34' W 122°44'3 5.5
2017-Dec-04 07:00N 45°36' W 122°47'1 2.6
2017-Dec-04 06:30N 45°37' W 122°47'2 4.9
2017-Dec-04 06:00N 45°39' W 122°45'2 4.8
2017-Dec-04 05:30N 45°37' W 122°47'1 2.1
2017-Dec-04 04:57N 45°38' W 122°47'3 6.0
2017-Dec-04 04:31N 45°41' W 122°46'3 5.4
2017-Dec-04 04:01N 45°44' W 122°46'3 5.1
2017-Dec-04 03:30N 45°46' W 122°46'3 5.4
2017-Dec-04 03:00N 45°49' W 122°48'3 5.2
2017-Dec-04 02:30N 45°51' W 122°47'3 5.1
2017-Dec-04 02:01N 45°54' W 122°48'3 5.3
2017-Dec-04 01:30N 45°56' W 122°48'3 5.7
2017-Dec-04 01:00N 45°59' W 122°50'3 5.5
2017-Dec-04 00:30N 46°01' W 122°52'3 6.2
2017-Dec-04 00:00N 46°04' W 122°54'3 6.7
2017-Dec-03 23:30N 46°06' W 122°57'4 7.2
2017-Dec-03 23:00N 46°08' W 123°02'6 7.4
2017-Dec-03 22:10N 46°11' W 123°09'1 7.7
2017-Dec-03 22:00N 46°11' W 123°11'4 7.9
2017-Dec-03 21:30N 46°09' W 123°16'4 7.9
2017-Dec-03 21:00N 46°09' W 123°22'2 4.3
2017-Dec-03 20:30N 46°10' W 123°25'0 0.0
2017-Dec-03 20:00N 46°10' W 123°25'0 0.0
2017-Dec-03 19:30N 46°10' W 123°25'0 0.1
2017-Dec-03 19:00N 46°10' W 123°25'1 2.7
2017-Dec-03 18:30N 46°11' W 123°26'4 7.7
2017-Dec-03 18:00N 46°15' W 123°26'3 6.9
2017-Dec-03 17:30N 46°16' W 123°31'4 7.8
2017-Dec-03 17:00N 46°15' W 123°36'4 7.9
2017-Dec-03 16:30N 46°15' W 123°42'4 8.3
2017-Dec-03 16:01N 46°12' W 123°47'4 7.6
2017-Dec-03 15:30N 46°11' W 123°53'2 4.0
2017-Dec-03 15:00N 46°11' W 123°55'0 0.2
2017-Dec-03 14:30N 46°11' W 123°55'0 0.0
2017-Dec-03 14:00N 46°11' W 123°55'1 2.7
2017-Dec-03 13:30N 46°11' W 123°54'612.4
2017-Dec-03 13:00N 46°13' W 123°45'611.8
2017-Dec-03 12:30N 46°15' W 123°37'611.4
2017-Dec-03 12:00N 46°16' W 123°29'510.3
2017-Dec-03 11:30N 46°11' W 123°26'2 4.0
2017-Dec-03 11:01N 46°10' W 123°24'0 0.3
2017-Dec-03 10:30N 46°10' W 123°24'2 4.7
2017-Dec-03 10:00N 46°09' W 123°21'4 8.1
2017-Dec-03 09:30N 46°09' W 123°15'4 8.3
2017-Dec-03 09:00N 46°11' W 123°10'4 8.3
2017-Dec-03 08:30N 46°10' W 123°04'5 9.5
2017-Dec-03 08:00N 46°07' W 122°59'1 1.2
2017-Dec-03 07:30N 46°07' W 122°58'1 1.9
2017-Dec-03 06:59N 46°06' W 122°57'510.2
2017-Dec-03 06:30N 46°02' W 122°53'510.1
2017-Dec-03 06:00N 45°58' W 122°49'510.8
2017-Dec-03 05:30N 45°52' W 122°47'510.3
2017-Dec-03 05:00N 45°47' W 122°47'510.3
2017-Dec-03 04:30N 45°42' W 122°46'5 9.3
2017-Dec-03 04:00N 45°38' W 122°47'0 0.8
2017-Dec-03 03:30N 45°37' W 122°47'0 0.3
2017-Dec-03 03:00N 45°37' W 122°47'1 1.5
2017-Dec-03 02:30N 45°38' W 122°47'3 5.6
2017-Dec-03 02:00N 45°41' W 122°46'3 6.6
2017-Dec-03 01:30N 45°44' W 122°46'3 6.7
2017-Dec-03 01:00N 45°47' W 122°47'3 6.4
2017-Dec-03 00:30N 45°51' W 122°47'3 6.8
2017-Dec-03 00:00N 45°54' W 122°48'4 7.2
2017-Dec-02 23:30N 45°57' W 122°49'4 7.5
2017-Dec-02 23:00N 46°01' W 122°51'4 7.6
2017-Dec-02 22:30N 46°04' W 122°53'4 7.9
2017-Dec-02 22:00N 46°06' W 122°58'4 7.9
2017-Dec-02 21:30N 46°09' W 123°03'4 8.2
2017-Dec-02 21:00N 46°11' W 123°08'4 8.0
2017-Dec-02 20:30N 46°10' W 123°13'4 8.4
2017-Dec-02 20:00N 46°09' W 123°19'4 5.8
2017-Dec-02 19:20N 46°10' W 123°25'0 0.0
2017-Dec-02 19:00N 46°10' W 123°25'0 0.0
2017-Dec-02 18:30N 46°10' W 123°25'0 0.0
2017-Dec-02 18:00N 46°10' W 123°25'0 0.6
2017-Dec-02 17:31N 46°10' W 123°24'1 2.3
2017-Dec-02 17:00N 46°09' W 123°23'4 8.5
2017-Dec-02 16:30N 46°09' W 123°17'5 9.3
2017-Dec-02 16:00N 46°11' W 123°11'4 8.1
2017-Dec-02 15:30N 46°10' W 123°05'5 9.7
2017-Dec-02 15:00N 46°07' W 122°59'5 9.7
2017-Dec-02 14:30N 46°04' W 122°54'5 9.5
2017-Dec-02 14:00N 46°00' W 122°51'5 9.2
2017-Dec-02 13:30N 45°56' W 122°48'5 9.2
2017-Dec-02 13:00N 45°51' W 122°47'4 8.6
2017-Dec-02 12:30N 45°47' W 122°47'4 8.5
2017-Dec-02 12:01N 45°43' W 122°46'4 8.2
2017-Dec-02 11:30N 45°39' W 122°46'2 3.4
2017-Dec-02 11:00N 45°37' W 122°47'2 4.9
2017-Dec-02 10:30N 45°39' W 122°45'0 1.0
2017-Dec-02 10:00N 45°39' W 122°44'0 0.2
2017-Dec-02 09:30N 45°39' W 122°45'3 5.1
2017-Dec-02 09:00N 45°37' W 122°47'0 0.0
2017-Dec-02 08:16N 45°37' W 122°47'0 0.0
2017-Dec-02 08:00N 45°37' W 122°47'0 0.0
2017-Dec-02 07:30N 45°37' W 122°47'0 0.4
2017-Dec-02 07:00N 45°37' W 122°47'0 0.4
2017-Dec-02 06:30N 45°37' W 122°47'1 2.2
2017-Dec-02 06:00N 45°38' W 122°47'2 3.3
2017-Dec-02 05:31N 45°40' W 122°46'3 6.1
2017-Dec-02 05:00N 45°43' W 122°46'3 6.5
2017-Dec-02 04:30N 45°46' W 122°46'3 6.5
2017-Dec-02 04:00N 45°49' W 122°48'3 6.3
2017-Dec-02 03:30N 45°52' W 122°47'3 6.1
2017-Dec-02 03:00N 45°55' W 122°49'3 6.0
2017-Dec-02 02:30N 45°58' W 122°49'3 6.3
2017-Dec-02 02:00N 46°01' W 122°51'3 6.0
2017-Dec-02 01:30N 46°04' W 122°53'3 5.8
2017-Dec-02 01:00N 46°06' W 122°56'3 6.1
2017-Dec-02 00:30N 46°07' W 122°60'3 6.1
2017-Dec-02 00:00N 46°09' W 123°03'3 6.5
2017-Dec-01 23:30N 46°11' W 123°07'3 5.9
2017-Dec-01 23:00N 46°11' W 123°12'3 6.6
2017-Dec-01 22:30N 46°09' W 123°16'3 6.7
2017-Dec-01 22:00N 46°09' W 123°21'3 5.8
2017-Dec-01 21:30N 46°10' W 123°25'0 0.0
2017-Dec-01 21:00N 46°10' W 123°25'0 0.0
2017-Dec-01 20:30N 46°10' W 123°25'0 0.0
2017-Dec-01 20:00N 46°10' W 123°25'0 0.0
2017-Dec-01 19:30N 46°10' W 123°25'0 0.0
2017-Dec-01 19:00N 46°10' W 123°25'0 0.6
2017-Dec-01 18:30N 46°10' W 123°24'2 4.3
2017-Dec-01 18:00N 46°09' W 123°21'4 8.5
2017-Dec-01 17:30N 46°09' W 123°15'  
Track history (hours):
 
Tides and Currents Weather Stations Pressure Air Temp Water Temp Dewpoint Dewpoint Depression Visibility Wind Speed Wind Dir Waves Ship Positions

Liberty

Owner: Tidewater Barge Lines Inc., Vancouver, WA. More information available from US FCC via Universal Licensing System and Coast Guard Vessel Documentation Center.

Last reported at 2017-Dec-11 17:00 UTC. Time now 2017-Dec-12 02:45 UTC.
Position N 46°09' W 123°18'.

Length 34 m; draft 3 m.

Type: Towing. MMSI: 2142822.

Date/timePositionNaut miles runAvg speedWind from/ knotsBaromVisibWave heightAir tempDewpointWater temp
2017-Dec-11 17:00N 46°09' W 123°18'4 8.8
2017-Dec-11 16:31N 46°11' W 123°12'4 8.3
2017-Dec-11 16:00N 46°11' W 123°06'5 9.6
2017-Dec-11 15:31N 46°08' W 123°00'4 8.7
2017-Dec-11 15:01N 46°05' W 122°55'0 0.6
2017-Dec-11 14:30N 46°05' W 122°55'4 8.7
2017-Dec-11 14:00N 46°01' W 122°52'5 9.3
2017-Dec-11 13:31N 45°57' W 122°49'5 9.4
2017-Dec-11 13:00N 45°53' W 122°48'5 9.1
2017-Dec-11 12:30N 45°48' W 122°47'4 8.8
2017-Dec-11 12:00N 45°44' W 122°46'4 8.9
2017-Dec-11 11:30N 45°40' W 122°46'3 5.1
2017-Dec-11 11:01N 45°37' W 122°47'3 5.8
2017-Dec-11 10:31N 45°35' W 122°45'1 2.1
2017-Dec-11 10:00N 45°34' W 122°44'0 0.0
2017-Dec-11 09:31N 45°34' W 122°44'0 0.0
2017-Dec-11 09:00N 45°34' W 122°44'0 0.0
2017-Dec-11 08:30N 45°34' W 122°44'0 0.0
2017-Dec-11 08:01N 45°34' W 122°44'0 0.0
2017-Dec-11 07:30N 45°34' W 122°44'0 0.0
2017-Dec-11 07:00N 45°34' W 122°44'0 0.0
2017-Dec-11 06:30N 45°34' W 122°44'3 6.5
2017-Dec-11 06:00N 45°36' W 122°47'1 1.7
2017-Dec-11 05:30N 45°37' W 122°47'3 5.5
2017-Dec-11 05:00N 45°40' W 122°46'4 7.1
2017-Dec-11 04:31N 45°43' W 122°46'4 7.4
2017-Dec-11 04:00N 45°47' W 122°47'3 6.8
2017-Dec-11 03:30N 45°50' W 122°47'3 6.5
2017-Dec-11 03:00N 45°54' W 122°48'3 6.7
2017-Dec-11 02:31N 45°57' W 122°49'3 6.6
2017-Dec-11 02:00N 45°60' W 122°51'3 6.2
2017-Dec-11 01:31N 46°03' W 122°53'3 5.9
2017-Dec-11 01:00N 46°05' W 122°55'3 6.7
2017-Dec-11 00:29N 46°07' W 122°59'3 6.4
2017-Dec-11 00:00N 46°09' W 123°03'3 6.6
2017-Dec-10 23:30N 46°11' W 123°07'3 5.9
2017-Dec-10 23:00N 46°11' W 123°11'3 6.0
2017-Dec-10 22:31N 46°10' W 123°15'3 6.1
2017-Dec-10 22:00N 46°09' W 123°19'3 6.2
2017-Dec-10 21:30N 46°09' W 123°23'1 2.0
2017-Dec-10 21:00N 46°10' W 123°25'0 0.0
2017-Dec-10 20:30N 46°10' W 123°25'0 0.9
2017-Dec-10 20:00N 46°09' W 123°24'0 0.7
2017-Dec-10 19:29N 46°09' W 123°24'510.0
2017-Dec-10 19:00N 46°09' W 123°17'510.1
2017-Dec-10 18:30N 46°11' W 123°10'5 9.2
2017-Dec-10 18:00N 46°10' W 123°04'5 9.2
2017-Dec-10 17:31N 46°07' W 122°59'4 8.9
2017-Dec-10 17:00N 46°04' W 122°53'4 8.6
2017-Dec-10 16:31N 46°00' W 122°51'5 9.3
2017-Dec-10 16:00N 45°56' W 122°48'5 9.8
2017-Dec-10 15:31N 45°51' W 122°47'6 9.7
2017-Dec-10 14:56N 45°46' W 122°46'410.2
2017-Dec-10 14:30N 45°41' W 122°46'4 8.3
2017-Dec-10 14:00N 45°37' W 122°47'0 0.1
2017-Dec-10 13:22N 45°37' W 122°47'0 0.4
2017-Dec-10 13:01N 45°37' W 122°47'3 5.2
2017-Dec-10 12:31N 45°40' W 122°46'1 2.8
2017-Dec-10 12:00N 45°41' W 122°46'2 4.5
2017-Dec-10 11:30N 45°43' W 122°46'2 4.7
2017-Dec-10 11:00N 45°45' W 122°46'3 4.6
2017-Dec-10 10:27N 45°48' W 122°47'2 4.4
2017-Dec-10 10:00N 45°50' W 122°48'2 4.2
2017-Dec-10 09:31N 45°52' W 122°47'2 3.9
2017-Dec-10 09:00N 45°54' W 122°48'2 4.2
2017-Dec-10 08:30N 45°56' W 122°48'2 4.4
2017-Dec-10 08:00N 45°58' W 122°49'2 4.5
2017-Dec-10 07:31N 45°60' W 122°51'2 4.5
2017-Dec-10 07:00N 46°02' W 122°53'2 4.4
2017-Dec-10 06:31N 46°04' W 122°53'2 4.5
2017-Dec-10 06:01N 46°06' W 122°55'1 2.2
2017-Dec-10 05:30N 46°06' W 122°57'1 1.1
2017-Dec-10 05:00N 46°06' W 122°56'0 0.0
2017-Dec-10 04:30N 46°06' W 122°56'0 0.0
2017-Dec-10 04:01N 46°06' W 122°56'2 4.1
2017-Dec-10 03:30N 46°07' W 122°59'3 5.4
2017-Dec-10 03:01N 46°09' W 123°02'3 5.4
2017-Dec-10 02:30N 46°10' W 123°05'3 5.9
2017-Dec-10 02:00N 46°11' W 123°09'3 6.0
2017-Dec-10 01:30N 46°10' W 123°13'3 6.0
2017-Dec-10 01:00N 46°09' W 123°17'3 5.9
2017-Dec-10 00:30N 46°09' W 123°21'3 5.2
2017-Dec-10 00:00N 46°10' W 123°25'0 0.0
2017-Dec-09 23:30N 46°10' W 123°25'2 3.3
2017-Dec-09 23:01N 46°11' W 123°26'4 7.3
2017-Dec-09 22:31N 46°15' W 123°26'3 6.8
2017-Dec-09 22:00N 46°16' W 123°31'4 7.4
2017-Dec-09 21:30N 46°15' W 123°36'4 7.1
2017-Dec-09 21:01N 46°15' W 123°41'4 7.4
2017-Dec-09 20:31N 46°13' W 123°46'4 7.1
2017-Dec-09 20:01N 46°12' W 123°50'3 5.8
2017-Dec-09 19:31N 46°11' W 123°55'1 1.4
2017-Dec-09 19:00N 46°12' W 123°56'0 0.3
2017-Dec-09 18:31N 46°11' W 123°55'0 0.1
2017-Dec-09 18:01N 46°11' W 123°55'0 0.1
2017-Dec-09 17:29N 46°11' W 123°55'0 0.0
2017-Dec-09 17:00N 46°11' W 123°55'0 0.0
2017-Dec-09 16:30N 46°11' W 123°55'0 0.0
2017-Dec-09 15:56N 46°11' W 123°55'0 0.0
2017-Dec-09 15:31N 46°11' W 123°55'0 0.0
2017-Dec-09 15:01N 46°12' W 123°55'4 6.0
2017-Dec-09 14:18N 46°12' W 123°49'510.0
2017-Dec-09 13:48N 46°14' W 123°43'3 9.2
2017-Dec-09 13:30N 46°15' W 123°39'5 9.3
2017-Dec-09 13:00N 46°16' W 123°33'4 8.6
2017-Dec-09 12:31N 46°15' W 123°27'5 9.7
2017-Dec-09 12:00N 46°10' W 123°25'1 1.5
2017-Dec-09 11:31N 46°10' W 123°24'2 4.2
2017-Dec-09 11:00N 46°09' W 123°21'510.8
2017-Dec-09 10:30N 46°10' W 123°14'510.5
2017-Dec-09 10:00N 46°11' W 123°06'611.3
2017-Dec-09 09:30N 46°08' W 122°60'510.9
2017-Dec-09 09:00N 46°04' W 122°53'611.0
2017-Dec-09 08:30N 45°59' W 122°50'510.5
2017-Dec-09 08:00N 45°54' W 122°48'510.4
2017-Dec-09 07:30N 45°49' W 122°48'510.1
2017-Dec-09 07:00N 45°44' W 122°46'7 8.1
2017-Dec-09 06:09N 45°37' W 122°47'0 1.5
2017-Dec-09 06:00N 45°37' W 122°47'0 0.4
2017-Dec-09 05:30N 45°37' W 122°47'0 0.1
2017-Dec-09 05:00N 45°37' W 122°47'0 0.0
2017-Dec-09 04:30N 45°37' W 122°47'0 0.0
2017-Dec-09 04:00N 45°37' W 122°47'1 2.7
2017-Dec-09 03:30N 45°38' W 122°47'3 5.3
2017-Dec-09 03:00N 45°41' W 122°46'4 7.5
2017-Dec-09 02:30N 45°45' W 122°46'5 9.7
2017-Dec-09 02:00N 45°50' W 122°48'2 4.6
2017-Dec-09 01:30N 45°52' W 122°47'3 6.9
2017-Dec-09 01:00N 45°55' W 122°49'3 6.7
2017-Dec-09 00:30N 45°58' W 122°50'2 3.0
2017-Dec-09 00:00N 45°60' W 122°51'3 6.0
2017-Dec-08 23:30N 46°02' W 122°53'3 6.6
2017-Dec-08 23:00N 46°05' W 122°55'4 7.1
2017-Dec-08 22:30N 46°07' W 122°59'3 6.9
2017-Dec-08 22:00N 46°09' W 123°03'4 7.0
2017-Dec-08 21:30N 46°11' W 123°08'3 6.4
2017-Dec-08 21:00N 46°10' W 123°12'3 6.5
2017-Dec-08 20:30N 46°09' W 123°17'3 6.7
2017-Dec-08 20:01N 46°09' W 123°21'2 4.9
2017-Dec-08 19:30N 46°10' W 123°25'0 0.0
2017-Dec-08 19:01N 46°10' W 123°25'0 0.0
2017-Dec-08 18:31N 46°10' W 123°25'0 0.3
2017-Dec-08 18:01N 46°10' W 123°24'0 0.5
2017-Dec-08 17:31N 46°10' W 123°24'4 7.9
2017-Dec-08 17:00N 46°09' W 123°19'5 9.3
2017-Dec-08 16:30N 46°10' W 123°12'4 8.1
2017-Dec-08 16:00N 46°11' W 123°07'4 8.4
2017-Dec-08 15:30N 46°08' W 123°02'4 8.1
2017-Dec-08 15:00N 46°06' W 122°57'4 7.9
2017-Dec-08 14:30N 46°03' W 122°53'4 8.4
2017-Dec-08 14:00N 45°59' W 122°51'4 8.7
2017-Dec-08 13:30N 45°55' W 122°48'5 9.3
2017-Dec-08 13:00N 45°51' W 122°47'4 8.9
2017-Dec-08 12:30N 45°46' W 122°46'5 9.2
2017-Dec-08 12:00N 45°42' W 122°46'4 7.9
2017-Dec-08 11:30N 45°38' W 122°47'1 1.5
2017-Dec-08 11:00N 45°37' W 122°47'0 0.4
2017-Dec-08 10:30N 45°37' W 122°47'3 5.1
2017-Dec-08 10:00N 45°40' W 122°45'3 6.6
2017-Dec-08 09:30N 45°36' W 122°47'4 8.9
2017-Dec-08 09:00N 45°33' W 122°43'2 3.5
2017-Dec-08 08:30N 45°32' W 122°41'4 8.2
2017-Dec-08 08:00N 45°35' W 122°45'3 5.6
2017-Dec-08 07:30N 45°37' W 122°47'0 0.2
2017-Dec-08 07:00N 45°37' W 122°47'0 0.2
2017-Dec-08 06:30N 45°37' W 122°47'0 0.1
2017-Dec-08 06:00N 45°37' W 122°47'0 0.6
2017-Dec-08 05:30N 45°38' W 122°47'4 7.1
2017-Dec-08 05:00N 45°41' W 122°47'4 7.5
2017-Dec-08 04:30N 45°45' W 122°46'4 7.8
2017-Dec-08 04:00N 45°48' W 122°47'4 7.5
2017-Dec-08 03:30N 45°52' W 122°47'3 5.5
2017-Dec-08 03:00N 45°55' W 122°49'4 7.5
2017-Dec-08 02:30N 45°58' W 122°50'4 7.5
2017-Dec-08 02:00N 46°02' W 122°53'4 7.3
2017-Dec-08 01:30N 46°05' W 122°55'4 7.6
2017-Dec-08 01:00N 46°07' W 122°59'4 7.7
2017-Dec-08 00:30N 46°09' W 123°04'4 8.4
2017-Dec-08 00:00N 46°11' W 123°09'4 8.5
2017-Dec-07 23:31N 46°10' W 123°15'4 8.4
2017-Dec-07 23:00N 46°09' W 123°21'3 5.8
2017-Dec-07 22:30N 46°10' W 123°25'0 0.0
2017-Dec-07 22:00N 46°10' W 123°25'0 0.0
2017-Dec-07 21:30N 46°10' W 123°25'0 0.0
2017-Dec-07 21:00N 46°10' W 123°25'0 0.6
2017-Dec-07 20:31N 46°10' W 123°24'3 5.8
2017-Dec-07 20:00N 46°09' W 123°20'510.7
2017-Dec-07 19:30N 46°10' W 123°13'510.0
2017-Dec-07 19:00N 46°10' W 123°06'510.7
2017-Dec-07 18:30N 46°07' W 122°59'510.3
2017-Dec-07 18:00N 46°04' W 122°53'5 9.5
2017-Dec-07 17:28N 45°60' W 122°51'0 0.4
2017-Dec-07 17:00N 45°59' W 122°50'0 0.0
2017-Dec-07 16:30N 45°59' W 122°50'0 0.0
2017-Dec-07 16:00N 45°59' W 122°50'1 2.2
2017-Dec-07 15:30N 46°00' W 122°51'1 1.8
2017-Dec-07 15:00N 46°01' W 122°52'1 1.4
2017-Dec-07 14:30N 46°01' W 122°51'1 2.7
2017-Dec-07 14:01N 45°59' W 122°50'0 0.0
2017-Dec-07 13:30N 45°59' W 122°50'0 0.0
2017-Dec-07 13:00N 45°59' W 122°50'0 0.0
2017-Dec-07 12:30N 45°59' W 122°50'0 0.0
2017-Dec-07 12:00N 45°59' W 122°50'0 1.0
2017-Dec-07 11:30N 45°59' W 122°50'5 9.3
2017-Dec-07 11:00N 45°54' W 122°49'1 2.5
2017-Dec-07 10:30N 45°53' W 122°48'5 9.5
2017-Dec-07 10:00N 45°49' W 122°48'5 9.3
2017-Dec-07 09:30N 45°44' W 122°46'5 9.1
2017-Dec-07 09:00N 45°39' W 122°46'1 1.3
2017-Dec-07 08:30N 45°39' W 122°45'2 3.7
2017-Dec-07 08:00N 45°38' W 122°43'2 3.9
2017-Dec-07 07:31N 45°39' W 122°45'0 0.3
2017-Dec-07 07:00N 45°39' W 122°45'2 5.0
2017-Dec-07 06:30N 45°37' W 122°47'0 0.2
2017-Dec-07 06:00N 45°37' W 122°47'0 0.0
2017-Dec-07 05:30N 45°37' W 122°47'0 0.1
2017-Dec-07 05:00N 45°37' W 122°47'3 5.7
2017-Dec-07 04:30N 45°40' W 122°46'3 5.9
2017-Dec-07 04:00N 45°43' W 122°46'3 6.9
2017-Dec-07 03:30N 45°46' W 122°46'4 6.9
2017-Dec-07 02:56N 45°50' W 122°47'3 7.0
2017-Dec-07 02:30N 45°53' W 122°48'3 6.7
2017-Dec-07 02:00N 45°56' W 122°48'4 8.1
2017-Dec-07 01:30N 46°00' W 122°51'4 8.1
2017-Dec-07 01:00N 46°04' W 122°53'4 7.7
2017-Dec-07 00:30N 46°06' W 122°58'4 8.0
2017-Dec-07 00:00N 46°09' W 123°02'4 7.9
2017-Dec-06 23:30N 46°11' W 123°07'4 7.5
2017-Dec-06 23:00N 46°10' W 123°13'4 8.0
2017-Dec-06 22:30N 46°09' W 123°18'4 8.1
2017-Dec-06 22:00N 46°09' W 123°24'0 0.7
2017-Dec-06 21:31N 46°09' W 123°24'0 0.0
2017-Dec-06 21:00N 46°09' W 123°24'  
2017-Dec-04 10:30N 45°34' W 122°44'0 0.0
2017-Dec-04 10:00N 45°34' W 122°44'0 0.0
2017-Dec-04 09:30N 45°34' W 122°44'0 0.0
2017-Dec-04 09:00N 45°34' W 122°44'0 0.0
2017-Dec-04 08:30N 45°34' W 122°44'0 0.0
2017-Dec-04 08:00N 45°34' W 122°44'0 0.0
2017-Dec-04 07:30N 45°34' W 122°44'3 5.5
2017-Dec-04 07:00N 45°36' W 122°47'1 2.6
2017-Dec-04 06:30N 45°37' W 122°47'2 4.9
2017-Dec-04 06:00N 45°39' W 122°45'2 4.8
2017-Dec-04 05:30N 45°37' W 122°47'1 2.1
2017-Dec-04 04:57N 45°38' W 122°47'3 6.0
2017-Dec-04 04:31N 45°41' W 122°46'3 5.4
2017-Dec-04 04:01N 45°44' W 122°46'3 5.1
2017-Dec-04 03:30N 45°46' W 122°46'3 5.4
2017-Dec-04 03:00N 45°49' W 122°48'3 5.2
2017-Dec-04 02:30N 45°51' W 122°47'3 5.1
2017-Dec-04 02:01N 45°54' W 122°48'3 5.3
2017-Dec-04 01:30N 45°56' W 122°48'3 5.7
2017-Dec-04 01:00N 45°59' W 122°50'3 5.5
2017-Dec-04 00:30N 46°01' W 122°52'3 6.2
2017-Dec-04 00:00N 46°04' W 122°54'3 6.7
2017-Dec-03 23:30N 46°06' W 122°57'4 7.2
2017-Dec-03 23:00N 46°08' W 123°02'6 7.4
2017-Dec-03 22:10N 46°11' W 123°09'1 7.7
2017-Dec-03 22:00N 46°11' W 123°11'4 7.9
2017-Dec-03 21:30N 46°09' W 123°16'4 7.9
2017-Dec-03 21:00N 46°09' W 123°22'2 4.3
2017-Dec-03 20:30N 46°10' W 123°25'0 0.0
2017-Dec-03 20:00N 46°10' W 123°25'0 0.0
2017-Dec-03 19:30N 46°10' W 123°25'0 0.1
2017-Dec-03 19:00N 46°10' W 123°25'1 2.7
2017-Dec-03 18:30N 46°11' W 123°26'4 7.7
2017-Dec-03 18:00N 46°15' W 123°26'3 6.9
2017-Dec-03 17:30N 46°16' W 123°31'4 7.8
2017-Dec-03 17:00N 46°15' W 123°36'4 7.9
2017-Dec-03 16:30N 46°15' W 123°42'4 8.3
2017-Dec-03 16:01N 46°12' W 123°47'4 7.6
2017-Dec-03 15:30N 46°11' W 123°53'2 4.0
2017-Dec-03 15:00N 46°11' W 123°55'0 0.2
2017-Dec-03 14:30N 46°11' W 123°55'0 0.0
2017-Dec-03 14:00N 46°11' W 123°55'1 2.7
2017-Dec-03 13:30N 46°11' W 123°54'612.4
2017-Dec-03 13:00N 46°13' W 123°45'611.8
2017-Dec-03 12:30N 46°15' W 123°37'611.4
2017-Dec-03 12:00N 46°16' W 123°29'510.3
2017-Dec-03 11:30N 46°11' W 123°26'2 4.0
2017-Dec-03 11:01N 46°10' W 123°24'0 0.3
2017-Dec-03 10:30N 46°10' W 123°24'2 4.7
2017-Dec-03 10:00N 46°09' W 123°21'4 8.1
2017-Dec-03 09:30N 46°09' W 123°15'4 8.3
2017-Dec-03 09:00N 46°11' W 123°10'4 8.3
2017-Dec-03 08:30N 46°10' W 123°04'5 9.5
2017-Dec-03 08:00N 46°07' W 122°59'1 1.2
2017-Dec-03 07:30N 46°07' W 122°58'1 1.9
2017-Dec-03 06:59N 46°06' W 122°57'510.2
2017-Dec-03 06:30N 46°02' W 122°53'510.1
2017-Dec-03 06:00N 45°58' W 122°49'510.8
2017-Dec-03 05:30N 45°52' W 122°47'510.3
2017-Dec-03 05:00N 45°47' W 122°47'510.3
2017-Dec-03 04:30N 45°42' W 122°46'5 9.3
2017-Dec-03 04:00N 45°38' W 122°47'0 0.8
2017-Dec-03 03:30N 45°37' W 122°47'0 0.3
2017-Dec-03 03:00N 45°37' W 122°47'1 1.5
2017-Dec-03 02:30N 45°38' W 122°47'3 5.6
2017-Dec-03 02:00N 45°41' W 122°46'3 6.6
2017-Dec-03 01:30N 45°44' W 122°46'3 6.7
2017-Dec-03 01:00N 45°47' W 122°47'3 6.4
2017-Dec-03 00:30N 45°51' W 122°47'3 6.8
2017-Dec-03 00:00N 45°54' W 122°48'4 7.2
2017-Dec-02 23:30N 45°57' W 122°49'4 7.5
2017-Dec-02 23:00N 46°01' W 122°51'4 7.6
2017-Dec-02 22:30N 46°04' W 122°53'4 7.9
2017-Dec-02 22:00N 46°06' W 122°58'4 7.9
2017-Dec-02 21:30N 46°09' W 123°03'4 8.2
2017-Dec-02 21:00N 46°11' W 123°08'4 8.0
2017-Dec-02 20:30N 46°10' W 123°13'4 8.4
2017-Dec-02 20:00N 46°09' W 123°19'4 5.8
2017-Dec-02 19:20N 46°10' W 123°25'0 0.0
2017-Dec-02 19:00N 46°10' W 123°25'0 0.0
2017-Dec-02 18:30N 46°10' W 123°25'0 0.0
2017-Dec-02 18:00N 46°10' W 123°25'0 0.6
2017-Dec-02 17:31N 46°10' W 123°24'1 2.3
2017-Dec-02 17:00N 46°09' W 123°23'4 8.5
2017-Dec-02 16:30N 46°09' W 123°17'5 9.3
2017-Dec-02 16:00N 46°11' W 123°11'4 8.1
2017-Dec-02 15:30N 46°10' W 123°05'5 9.7
2017-Dec-02 15:00N 46°07' W 122°59'5 9.7
2017-Dec-02 14:30N 46°04' W 122°54'5 9.5
2017-Dec-02 14:00N 46°00' W 122°51'5 9.2
2017-Dec-02 13:30N 45°56' W 122°48'5 9.2
2017-Dec-02 13:00N 45°51' W 122°47'4 8.6
2017-Dec-02 12:30N 45°47' W 122°47'4 8.5
2017-Dec-02 12:01N 45°43' W 122°46'4 8.2
2017-Dec-02 11:30N 45°39' W 122°46'2 3.4
2017-Dec-02 11:00N 45°37' W 122°47'2 4.9
2017-Dec-02 10:30N 45°39' W 122°45'0 1.0
2017-Dec-02 10:00N 45°39' W 122°44'0 0.2
2017-Dec-02 09:30N 45°39' W 122°45'3 5.1
2017-Dec-02 09:00N 45°37' W 122°47'0 0.0
2017-Dec-02 08:16N 45°37' W 122°47'0 0.0
2017-Dec-02 08:00N 45°37' W 122°47'0 0.0
2017-Dec-02 07:30N 45°37' W 122°47'0 0.4
2017-Dec-02 07:00N 45°37' W 122°47'0 0.4
2017-Dec-02 06:30N 45°37' W 122°47'1 2.2
2017-Dec-02 06:00N 45°38' W 122°47'2 3.3
2017-Dec-02 05:31N 45°40' W 122°46'3 6.1
2017-Dec-02 05:00N 45°43' W 122°46'3 6.5
2017-Dec-02 04:30N 45°46' W 122°46'3 6.5
2017-Dec-02 04:00N 45°49' W 122°48'3 6.3
2017-Dec-02 03:30N 45°52' W 122°47'3 6.1
2017-Dec-02 03:00N 45°55' W 122°49'3 6.0
2017-Dec-02 02:30N 45°58' W 122°49'3 6.3
2017-Dec-02 02:00N 46°01' W 122°51'3 6.0
2017-Dec-02 01:30N 46°04' W 122°53'3 5.8
2017-Dec-02 01:00N 46°06' W 122°56'3 6.1
2017-Dec-02 00:30N 46°07' W 122°60'3 6.1
2017-Dec-02 00:00N 46°09' W 123°03'3 6.5
2017-Dec-01 23:30N 46°11' W 123°07'3 5.9
2017-Dec-01 23:00N 46°11' W 123°12'3 6.6
2017-Dec-01 22:30N 46°09' W 123°16'3 6.7
2017-Dec-01 22:00N 46°09' W 123°21'3 5.8
2017-Dec-01 21:30N 46°10' W 123°25'0 0.0
2017-Dec-01 21:00N 46°10' W 123°25'0 0.0
2017-Dec-01 20:30N 46°10' W 123°25'0 0.0
2017-Dec-01 20:00N 46°10' W 123°25'0 0.0
2017-Dec-01 19:30N 46°10' W 123°25'0 0.0
2017-Dec-01 19:00N 46°10' W 123°25'0 0.6
2017-Dec-01 18:30N 46°10' W 123°24'2 4.3
2017-Dec-01 18:00N 46°09' W 123°21'4 8.5
2017-Dec-01 17:30N 46°09' W 123°15'  

Dump ship's entire track history